sensor_id;sensor_type;location;lat;lon;timestamp;temperature;humidity
9901;DHT22;4989;48.772;9.154;2023-07-29T00:04:08;18.90;99.90
9901;DHT22;4989;48.772;9.154;2023-07-29T00:09:11;19.00;99.90
9901;DHT22;4989;48.772;9.154;2023-07-29T00:14:14;19.00;99.90
9901;DHT22;4989;48.772;9.154;2023-07-29T00:19:16;19.70;99.90
9901;DHT22;4989;48.772;9.154;2023-07-29T00:24:18;20.20;99.90
9901;DHT22;4989;48.772;9.154;2023-07-29T00:29:20;20.20;99.90
9901;DHT22;4989;48.772;9.154;2023-07-29T00:34:26;20.40;99.90
9901;DHT22;4989;48.772;9.154;2023-07-29T00:39:28;19.90;99.90
9901;DHT22;4989;48.772;9.154;2023-07-29T00:44:30;19.70;99.90
9901;DHT22;4989;48.772;9.154;2023-07-29T00:49:35;19.70;99.90
9901;DHT22;4989;48.772;9.154;2023-07-29T00:54:41;19.70;99.90
9901;DHT22;4989;48.772;9.154;2023-07-29T00:59:44;19.70;99.90
9901;DHT22;4989;48.772;9.154;2023-07-29T01:04:54;19.70;99.90
9901;DHT22;4989;48.772;9.154;2023-07-29T01:10:02;19.40;99.90
9901;DHT22;4989;48.772;9.154;2023-07-29T01:15:43;19.30;99.90
9901;DHT22;4989;48.772;9.154;2023-07-29T01:20:47;19.80;99.90
9901;DHT22;4989;48.772;9.154;2023-07-29T01:25:53;20.60;99.90
9901;DHT22;4989;48.772;9.154;2023-07-29T01:31:07;19.90;99.90
9901;DHT22;4989;48.772;9.154;2023-07-29T01:36:21;19.80;99.90
9901;DHT22;4989;48.772;9.154;2023-07-29T01:41:29;19.80;99.90
9901;DHT22;4989;48.772;9.154;2023-07-29T01:46:33;19.60;99.90
9901;DHT22;4989;48.772;9.154;2023-07-29T01:51:36;19.20;99.90
9901;DHT22;4989;48.772;9.154;2023-07-29T01:56:38;18.90;99.90
9901;DHT22;4989;48.772;9.154;2023-07-29T02:01:41;18.80;99.90
9901;DHT22;4989;48.772;9.154;2023-07-29T02:06:43;18.80;99.90
9901;DHT22;4989;48.772;9.154;2023-07-29T02:11:45;18.70;99.90
9901;DHT22;4989;48.772;9.154;2023-07-29T02:16:47;18.60;99.90
9901;DHT22;4989;48.772;9.154;2023-07-29T02:21:50;18.60;99.90
9901;DHT22;4989;48.772;9.154;2023-07-29T02:26:52;18.70;99.90
9901;DHT22;4989;48.772;9.154;2023-07-29T02:31:54;18.70;99.90
9901;DHT22;4989;48.772;9.154;2023-07-29T02:36:56;18.80;99.90
9901;DHT22;4989;48.772;9.154;2023-07-29T02:41:58;18.80;99.90
9901;DHT22;4989;48.772;9.154;2023-07-29T02:47:01;18.80;99.90
9901;DHT22;4989;48.772;9.154;2023-07-29T02:52:04;18.90;99.90
9901;DHT22;4989;48.772;9.154;2023-07-29T02:57:06;18.80;99.90
9901;DHT22;4989;48.772;9.154;2023-07-29T03:02:09;18.80;99.90
9901;DHT22;4989;48.772;9.154;2023-07-29T03:07:11;18.70;99.90
9901;DHT22;4989;48.772;9.154;2023-07-29T03:12:13;18.70;99.90
9901;DHT22;4989;48.772;9.154;2023-07-29T03:17:16;18.70;99.90
9901;DHT22;4989;48.772;9.154;2023-07-29T03:22:18;18.70;99.90
9901;DHT22;4989;48.772;9.154;2023-07-29T03:27:20;18.70;99.90
9901;DHT22;4989;48.772;9.154;2023-07-29T03:32:22;18.70;99.90
9901;DHT22;4989;48.772;9.154;2023-07-29T03:37:24;18.70;99.90
9901;DHT22;4989;48.772;9.154;2023-07-29T03:42:27;18.70;99.90
9901;DHT22;4989;48.772;9.154;2023-07-29T03:47:29;18.70;99.90
9901;DHT22;4989;48.772;9.154;2023-07-29T03:52:33;18.50;99.90
9901;DHT22;4989;48.772;9.154;2023-07-29T03:57:35;18.50;99.90
9901;DHT22;4989;48.772;9.154;2023-07-29T04:02:37;18.50;99.90
9901;DHT22;4989;48.772;9.154;2023-07-29T04:07:40;18.50;99.90
9901;DHT22;4989;48.772;9.154;2023-07-29T04:12:43;18.40;99.90
9901;DHT22;4989;48.772;9.154;2023-07-29T04:17:45;18.30;99.90
9901;DHT22;4989;48.772;9.154;2023-07-29T04:22:47;18.30;99.90
9901;DHT22;4989;48.772;9.154;2023-07-29T04:27:50;18.30;99.90
9901;DHT22;4989;48.772;9.154;2023-07-29T04:32:52;18.30;99.90
9901;DHT22;4989;48.772;9.154;2023-07-29T04:37:56;18.30;99.90
9901;DHT22;4989;48.772;9.154;2023-07-29T04:43:00;18.40;99.90
9901;DHT22;4989;48.772;9.154;2023-07-29T04:48:03;18.40;99.90
9901;DHT22;4989;48.772;9.154;2023-07-29T04:53:05;18.50;99.90
9901;DHT22;4989;48.772;9.154;2023-07-29T04:58:08;18.50;99.90
9901;DHT22;4989;48.772;9.154;2023-07-29T05:03:10;18.60;99.90
9901;DHT22;4989;48.772;9.154;2023-07-29T05:08:13;18.80;99.90
9901;DHT22;4989;48.772;9.154;2023-07-29T05:13:15;18.60;99.90
9901;DHT22;4989;48.772;9.154;2023-07-29T05:18:18;18.70;99.90
9901;DHT22;4989;48.772;9.154;2023-07-29T05:23:20;18.50;99.90
9901;DHT22;4989;48.772;9.154;2023-07-29T05:28:22;18.50;99.90
9901;DHT22;4989;48.772;9.154;2023-07-29T05:33:24;18.40;99.90
9901;DHT22;4989;48.772;9.154;2023-07-29T05:38:27;18.50;99.90
9901;DHT22;4989;48.772;9.154;2023-07-29T05:43:29;18.50;99.90
9901;DHT22;4989;48.772;9.154;2023-07-29T05:48:32;18.60;99.90
9901;DHT22;4989;48.772;9.154;2023-07-29T05:53:34;18.60;99.90
9901;DHT22;4989;48.772;9.154;2023-07-29T05:58:36;18.70;99.90
9901;DHT22;4989;48.772;9.154;2023-07-29T06:03:41;18.80;99.90
9901;DHT22;4989;48.772;9.154;2023-07-29T06:08:43;18.80;99.90
9901;DHT22;4989;48.772;9.154;2023-07-29T06:13:47;19.00;99.90
9901;DHT22;4989;48.772;9.154;2023-07-29T06:18:50;19.10;99.90
9901;DHT22;4989;48.772;9.154;2023-07-29T06:23:54;19.20;99.90
9901;DHT22;4989;48.772;9.154;2023-07-29T06:28:57;19.30;99.90
9901;DHT22;4989;48.772;9.154;2023-07-29T06:33:59;19.50;99.90
9901;DHT22;4989;48.772;9.154;2023-07-29T06:39:01;19.60;99.90
9901;DHT22;4989;48.772;9.154;2023-07-29T06:44:04;19.60;99.90
9901;DHT22;4989;48.772;9.154;2023-07-29T06:49:06;19.70;99.90
9901;DHT22;4989;48.772;9.154;2023-07-29T06:54:08;19.90;99.90
9901;DHT22;4989;48.772;9.154;2023-07-29T06:59:13;19.90;99.90
9901;DHT22;4989;48.772;9.154;2023-07-29T07:04:16;19.80;99.90
9901;DHT22;4989;48.772;9.154;2023-07-29T07:09:19;19.80;99.90
9901;DHT22;4989;48.772;9.154;2023-07-29T07:14:21;19.60;99.90
9901;DHT22;4989;48.772;9.154;2023-07-29T07:19:23;19.60;99.90
9901;DHT22;4989;48.772;9.154;2023-07-29T07:24:25;19.50;99.90
9901;DHT22;4989;48.772;9.154;2023-07-29T07:29:27;19.40;99.90
9901;DHT22;4989;48.772;9.154;2023-07-29T07:34:30;19.50;99.90
9901;DHT22;4989;48.772;9.154;2023-07-29T07:39:32;19.50;99.90
9901;DHT22;4989;48.772;9.154;2023-07-29T07:44:34;19.50;99.90
9901;DHT22;4989;48.772;9.154;2023-07-29T07:49:37;19.40;99.90
9901;DHT22;4989;48.772;9.154;2023-07-29T07:54:39;19.50;99.90
9901;DHT22;4989;48.772;9.154;2023-07-29T07:59:41;19.60;99.90
9901;DHT22;4989;48.772;9.154;2023-07-29T08:04:43;19.60;99.90
9901;DHT22;4989;48.772;9.154;2023-07-29T08:09:45;19.60;99.90
9901;DHT22;4989;48.772;9.154;2023-07-29T08:14:48;19.80;99.90
9901;DHT22;4989;48.772;9.154;2023-07-29T08:19:50;19.80;99.90
9901;DHT22;4989;48.772;9.154;2023-07-29T08:24:52;20.00;99.90
9901;DHT22;4989;48.772;9.154;2023-07-29T08:29:54;20.20;99.90
9901;DHT22;4989;48.772;9.154;2023-07-29T08:34:56;20.20;99.90
9901;DHT22;4989;48.772;9.154;2023-07-29T08:39:59;20.30;99.90
9901;DHT22;4989;48.772;9.154;2023-07-29T08:45:08;20.50;99.90
9901;DHT22;4989;48.772;9.154;2023-07-29T08:50:13;20.60;99.90
9901;DHT22;4989;48.772;9.154;2023-07-29T08:55:17;20.80;99.90
9901;DHT22;4989;48.772;9.154;2023-07-29T09:00:20;21.10;99.90
9901;DHT22;4989;48.772;9.154;2023-07-29T09:05:23;21.70;99.90
9901;DHT22;4989;48.772;9.154;2023-07-29T09:10:26;22.10;99.90
9901;DHT22;4989;48.772;9.154;2023-07-29T09:15:29;22.10;99.90
9901;DHT22;4989;48.772;9.154;2023-07-29T09:20:33;22.10;99.90
9901;DHT22;4989;48.772;9.154;2023-07-29T09:25:37;22.40;99.90
9901;DHT22;4989;48.772;9.154;2023-07-29T09:30:41;22.70;99.90
9901;DHT22;4989;48.772;9.154;2023-07-29T09:35:47;22.80;99.90
9901;DHT22;4989;48.772;9.154;2023-07-29T09:40:49;23.10;99.90
9901;DHT22;4989;48.772;9.154;2023-07-29T09:45:52;23.30;99.90
9901;DHT22;4989;48.772;9.154;2023-07-29T09:50:57;23.20;99.90
9901;DHT22;4989;48.772;9.154;2023-07-29T09:55:59;23.60;99.90
9901;DHT22;4989;48.772;9.154;2023-07-29T10:01:01;23.50;99.90
9901;DHT22;4989;48.772;9.154;2023-07-29T10:06:05;23.90;99.90
9901;DHT22;4989;48.772;9.154;2023-07-29T10:11:10;24.80;99.90
9901;DHT22;4989;48.772;9.154;2023-07-29T10:16:13;25.20;96.80
9901;DHT22;4989;48.772;9.154;2023-07-29T10:21:16;25.20;96.80
9901;DHT22;4989;48.772;9.154;2023-07-29T10:26:20;25.00;96.50
9901;DHT22;4989;48.772;9.154;2023-07-29T10:31:24;25.10;97.20
9901;DHT22;4989;48.772;9.154;2023-07-29T10:36:26;24.90;97.70
9901;DHT22;4989;48.772;9.154;2023-07-29T10:52:27;24.30;98.80
9901;DHT22;4989;48.772;9.154;2023-07-29T10:57:37;24.50;99.50
9901;DHT22;4989;48.772;9.154;2023-07-29T11:02:57;25.30;96.90
9901;DHT22;4989;48.772;9.154;2023-07-29T11:08:16;24.90;97.30
9901;DHT22;4989;48.772;9.154;2023-07-29T11:13:19;25.10;96.90
9901;DHT22;4989;48.772;9.154;2023-07-29T11:18:21;24.80;97.40
9901;DHT22;4989;48.772;9.154;2023-07-29T11:23:28;24.60;97.20
9901;DHT22;4989;48.772;9.154;2023-07-29T11:28:42;24.60;97.20
9901;DHT22;4989;48.772;9.154;2023-07-29T11:34:38;24.50;97.50
9901;DHT22;4989;48.772;9.154;2023-07-29T11:39:43;24.50;97.60
9901;DHT22;4989;48.772;9.154;2023-07-29T11:44:51;24.60;97.20
9901;DHT22;4989;48.772;9.154;2023-07-29T11:50:00;24.70;95.20
9901;DHT22;4989;48.772;9.154;2023-07-29T11:55:05;24.90;96.20
9901;DHT22;4989;48.772;9.154;2023-07-29T12:00:10;25.30;95.10
9901;DHT22;4989;48.772;9.154;2023-07-29T12:05:18;25.60;94.10
9901;DHT22;4989;48.772;9.154;2023-07-29T12:10:25;25.70;93.10
9901;DHT22;4989;48.772;9.154;2023-07-29T12:21:24;26.90;84.70
9901;DHT22;4989;48.772;9.154;2023-07-29T12:26:29;26.10;90.60
9901;DHT22;4989;48.772;9.154;2023-07-29T12:31:45;26.70;89.70
9901;DHT22;4989;48.772;9.154;2023-07-29T12:48:45;28.30;75.50
9901;DHT22;4989;48.772;9.154;2023-07-29T12:53:49;28.80;74.10
9901;DHT22;4989;48.772;9.154;2023-07-29T12:58:59;28.70;71.70
9901;DHT22;4989;48.772;9.154;2023-07-29T13:04:23;28.60;69.50
9901;DHT22;4989;48.772;9.154;2023-07-29T13:09:56;28.20;73.00
9901;DHT22;4989;48.772;9.154;2023-07-29T13:14:59;27.40;72.30
9901;DHT22;4989;48.772;9.154;2023-07-29T13:20:07;27.80;67.10
9901;DHT22;4989;48.772;9.154;2023-07-29T13:26:05;27.40;66.40
9901;DHT22;4989;48.772;9.154;2023-07-29T13:31:12;27.20;74.20
9901;DHT22;4989;48.772;9.154;2023-07-29T13:36:18;27.30;74.60
9901;DHT22;4989;48.772;9.154;2023-07-29T13:41:36;26.70;70.10
9901;DHT22;4989;48.772;9.154;2023-07-29T13:46:42;26.60;75.70
9901;DHT22;4989;48.772;9.154;2023-07-29T13:51:45;26.30;74.40
9901;DHT22;4989;48.772;9.154;2023-07-29T13:56:58;26.40;72.20
9901;DHT22;4989;48.772;9.154;2023-07-29T14:02:02;26.40;71.20
9901;DHT22;4989;48.772;9.154;2023-07-29T14:07:07;26.30;70.90
9901;DHT22;4989;48.772;9.154;2023-07-29T14:12:09;26.50;73.00
9901;DHT22;4989;48.772;9.154;2023-07-29T14:29:18;26.80;75.50
9901;DHT22;4989;48.772;9.154;2023-07-29T14:34:31;27.20;67.50
9901;DHT22;4989;48.772;9.154;2023-07-29T14:39:40;26.70;71.80
9901;DHT22;4989;48.772;9.154;2023-07-29T14:45:13;26.50;72.40
9901;DHT22;4989;48.772;9.154;2023-07-29T14:50:17;26.30;73.20
9901;DHT22;4989;48.772;9.154;2023-07-29T15:01:33;26.20;74.00
9901;DHT22;4989;48.772;9.154;2023-07-29T15:07:40;26.30;72.60
9901;DHT22;4989;48.772;9.154;2023-07-29T15:12:45;26.50;74.80
9901;DHT22;4989;48.772;9.154;2023-07-29T15:17:52;26.50;73.80
9901;DHT22;4989;48.772;9.154;2023-07-29T15:23:01;26.50;75.40
9901;DHT22;4989;48.772;9.154;2023-07-29T15:28:06;26.50;76.30
9901;DHT22;4989;48.772;9.154;2023-07-29T15:33:18;26.50;73.00
9901;DHT22;4989;48.772;9.154;2023-07-29T15:38:21;26.30;71.20
9901;DHT22;4989;48.772;9.154;2023-07-29T15:43:23;26.60;73.60
9901;DHT22;4989;48.772;9.154;2023-07-29T15:48:28;26.90;74.40
9901;DHT22;4989;48.772;9.154;2023-07-29T15:53:35;26.80;73.90
9901;DHT22;4989;48.772;9.154;2023-07-29T15:58:47;26.60;74.30
9901;DHT22;4989;48.772;9.154;2023-07-29T16:03:50;26.70;75.30
9901;DHT22;4989;48.772;9.154;2023-07-29T16:09:08;26.50;73.50
9901;DHT22;4989;48.772;9.154;2023-07-29T16:14:16;26.60;74.00
9901;DHT22;4989;48.772;9.154;2023-07-29T16:19:53;26.60;70.90
9901;DHT22;4989;48.772;9.154;2023-07-29T16:25:03;26.50;69.30
9901;DHT22;4989;48.772;9.154;2023-07-29T16:30:34;26.30;68.60
9901;DHT22;4989;48.772;9.154;2023-07-29T16:35:37;26.10;68.40
9901;DHT22;4989;48.772;9.154;2023-07-29T16:40:42;26.00;68.50
9901;DHT22;4989;48.772;9.154;2023-07-29T16:46:05;26.10;72.70
9901;DHT22;4989;48.772;9.154;2023-07-29T16:51:17;26.00;67.80
9901;DHT22;4989;48.772;9.154;2023-07-29T16:56:19;26.00;68.60
9901;DHT22;4989;48.772;9.154;2023-07-29T17:01:27;25.90;69.20
9901;DHT22;4989;48.772;9.154;2023-07-29T17:06:51;25.90;68.90
9901;DHT22;4989;48.772;9.154;2023-07-29T17:11:58;25.70;69.40
9901;DHT22;4989;48.772;9.154;2023-07-29T17:17:12;25.60;69.90
9901;DHT22;4989;48.772;9.154;2023-07-29T17:22:18;25.70;70.30
9901;DHT22;4989;48.772;9.154;2023-07-29T17:27:45;25.50;70.80
9901;DHT22;4989;48.772;9.154;2023-07-29T17:32:52;25.20;71.40
9901;DHT22;4989;48.772;9.154;2023-07-29T17:38:01;24.20;76.80
9901;DHT22;4989;48.772;9.154;2023-07-29T17:49:33;22.80;88.70
9901;DHT22;4989;48.772;9.154;2023-07-29T17:54:42;22.80;92.30
9901;DHT22;4989;48.772;9.154;2023-07-29T17:59:47;22.80;94.40
9901;DHT22;4989;48.772;9.154;2023-07-29T18:10:40;22.60;98.60
9901;DHT22;4989;48.772;9.154;2023-07-29T18:15:51;22.30;99.90
9901;DHT22;4989;48.772;9.154;2023-07-29T18:21:01;22.30;99.90
9901;DHT22;4989;48.772;9.154;2023-07-29T18:26:08;22.40;99.90
9901;DHT22;4989;48.772;9.154;2023-07-29T18:31:10;22.60;99.70
9901;DHT22;4989;48.772;9.154;2023-07-29T18:36:13;22.80;98.90
9901;DHT22;4989;48.772;9.154;2023-07-29T18:41:19;22.70;99.70
9901;DHT22;4989;48.772;9.154;2023-07-29T18:46:30;22.80;99.90
9901;DHT22;4989;48.772;9.154;2023-07-29T18:51:37;22.40;99.90
9901;DHT22;4989;48.772;9.154;2023-07-29T19:08:51;22.10;99.90
9901;DHT22;4989;48.772;9.154;2023-07-29T19:13:58;22.00;99.90
9901;DHT22;4989;48.772;9.154;2023-07-29T19:19:01;22.20;99.90
9901;DHT22;4989;48.772;9.154;2023-07-29T19:24:03;22.20;99.90
9901;DHT22;4989;48.772;9.154;2023-07-29T19:29:05;22.30;99.90
9901;DHT22;4989;48.772;9.154;2023-07-29T19:34:14;22.10;99.90
9901;DHT22;4989;48.772;9.154;2023-07-29T19:39:18;21.80;99.90
9901;DHT22;4989;48.772;9.154;2023-07-29T19:44:21;21.90;99.90
9901;DHT22;4989;48.772;9.154;2023-07-29T19:49:33;21.90;99.90
9901;DHT22;4989;48.772;9.154;2023-07-29T19:54:35;21.70;99.90
9901;DHT22;4989;48.772;9.154;2023-07-29T19:59:45;21.70;99.90
9901;DHT22;4989;48.772;9.154;2023-07-29T20:04:53;21.60;99.90
9901;DHT22;4989;48.772;9.154;2023-07-29T20:10:02;21.60;99.90
9901;DHT22;4989;48.772;9.154;2023-07-29T20:15:12;21.50;99.90
9901;DHT22;4989;48.772;9.154;2023-07-29T20:20:17;21.60;99.90
9901;DHT22;4989;48.772;9.154;2023-07-29T20:25:20;21.60;99.90
9901;DHT22;4989;48.772;9.154;2023-07-29T20:30:22;21.50;99.90
9901;DHT22;4989;48.772;9.154;2023-07-29T20:35:24;21.50;99.90
9901;DHT22;4989;48.772;9.154;2023-07-29T20:40:28;21.30;99.90
9901;DHT22;4989;48.772;9.154;2023-07-29T20:45:30;21.40;99.90
9901;DHT22;4989;48.772;9.154;2023-07-29T20:50:34;21.40;99.90
9901;DHT22;4989;48.772;9.154;2023-07-29T20:55:40;21.50;99.90
9901;DHT22;4989;48.772;9.154;2023-07-29T21:00:46;21.50;99.90
9901;DHT22;4989;48.772;9.154;2023-07-29T21:05:49;21.60;99.90
9901;DHT22;4989;48.772;9.154;2023-07-29T21:10:54;21.40;99.90
9901;DHT22;4989;48.772;9.154;2023-07-29T21:15:58;21.40;99.90
9901;DHT22;4989;48.772;9.154;2023-07-29T21:21:02;21.40;99.90
9901;DHT22;4989;48.772;9.154;2023-07-29T21:26:06;21.40;99.90
9901;DHT22;4989;48.772;9.154;2023-07-29T21:31:14;21.50;99.90
9901;DHT22;4989;48.772;9.154;2023-07-29T21:36:18;21.50;99.90
9901;DHT22;4989;48.772;9.154;2023-07-29T21:41:24;21.50;99.90
9901;DHT22;4989;48.772;9.154;2023-07-29T21:46:26;21.40;99.90
9901;DHT22;4989;48.772;9.154;2023-07-29T21:51:34;21.50;99.90
9901;DHT22;4989;48.772;9.154;2023-07-29T21:56:41;21.40;99.90
9901;DHT22;4989;48.772;9.154;2023-07-29T22:01:49;21.50;99.90
9901;DHT22;4989;48.772;9.154;2023-07-29T22:06:51;21.40;99.90
9901;DHT22;4989;48.772;9.154;2023-07-29T22:12:01;21.60;99.90
9901;DHT22;4989;48.772;9.154;2023-07-29T22:17:05;21.60;99.90
9901;DHT22;4989;48.772;9.154;2023-07-29T22:22:12;21.40;99.90
9901;DHT22;4989;48.772;9.154;2023-07-29T22:27:17;21.30;99.90
9901;DHT22;4989;48.772;9.154;2023-07-29T22:32:20;21.30;99.90
9901;DHT22;4989;48.772;9.154;2023-07-29T22:37:22;21.40;99.90
9901;DHT22;4989;48.772;9.154;2023-07-29T22:42:31;21.10;99.90
9901;DHT22;4989;48.772;9.154;2023-07-29T22:47:33;20.70;99.90
9901;DHT22;4989;48.772;9.154;2023-07-29T22:52:36;20.60;99.90
9901;DHT22;4989;48.772;9.154;2023-07-29T22:57:53;20.30;99.90
9901;DHT22;4989;48.772;9.154;2023-07-29T23:03:09;21.20;99.90
9901;DHT22;4989;48.772;9.154;2023-07-29T23:08:12;21.00;99.90
9901;DHT22;4989;48.772;9.154;2023-07-29T23:13:15;20.50;99.90
9901;DHT22;4989;48.772;9.154;2023-07-29T23:18:18;20.70;99.90
9901;DHT22;4989;48.772;9.154;2023-07-29T23:23:22;20.80;99.90
9901;DHT22;4989;48.772;9.154;2023-07-29T23:28:37;20.70;99.90
9901;DHT22;4989;48.772;9.154;2023-07-29T23:33:43;20.60;99.90
9901;DHT22;4989;48.772;9.154;2023-07-29T23:38:46;20.60;99.90
9901;DHT22;4989;48.772;9.154;2023-07-29T23:43:48;19.90;99.90
9901;DHT22;4989;48.772;9.154;2023-07-29T23:49:00;20.00;99.90
9901;DHT22;4989;48.772;9.154;2023-07-29T23:54:07;19.30;99.90
9901;DHT22;4989;48.772;9.154;2023-07-29T23:59:12;19.50;99.90
